createdAt,value
2019-03-25T00:01:49.388Z,101104.68
2019-03-25T00:04:23.249Z,101098.74
2019-03-25T00:06:57.769Z,101097.09
2019-03-25T00:09:31.629Z,101096.47
2019-03-25T00:12:08.047Z,101097.14
2019-03-25T00:14:42.905Z,101095.97
2019-03-25T00:17:16.770Z,101089.36
2019-03-25T00:19:51.667Z,101086.21
2019-03-25T00:22:25.655Z,101082.62
2019-03-25T00:24:59.415Z,101076.80
2019-03-25T00:27:33.651Z,101068.06
2019-03-25T00:30:09.880Z,101073.14
2019-03-25T00:32:46.185Z,101072.09
2019-03-25T00:35:20.026Z,101061.16
2019-03-25T00:37:54.010Z,101056.89
2019-03-25T00:40:27.888Z,101047.36
2019-03-25T00:43:01.760Z,101052.58
2019-03-25T00:45:35.706Z,101048.50
2019-03-25T00:48:09.594Z,101042.52
2019-03-25T00:50:43.444Z,101036.67
2019-03-25T00:53:17.363Z,101042.48
2019-03-25T00:55:51.258Z,101045.09
2019-03-25T00:58:25.010Z,101038.17
2019-03-25T01:00:58.765Z,101032.17
2019-03-25T01:03:33.213Z,101032.23
2019-03-25T01:06:09.187Z,101041.29
2019-03-25T01:08:43.234Z,101031.28
2019-03-25T01:11:18.594Z,101030.89
2019-03-25T01:13:56.016Z,101031.41
2019-03-25T01:16:30.055Z,101014.91
2019-03-25T01:19:03.896Z,101015.70
2019-03-25T01:21:38.119Z,101019.47
2019-03-25T01:24:12.407Z,101010.20
2019-03-25T01:26:47.324Z,101005.23
2019-03-25T01:29:21.662Z,100996.70
2019-03-25T01:31:55.464Z,100993.28
2019-03-25T01:34:29.273Z,100989.79
2019-03-25T01:37:02.963Z,100989.55
2019-03-25T01:39:36.674Z,100989.23
2019-03-25T01:42:12.694Z,100988.64
2019-03-25T01:44:47.169Z,100981.03
2019-03-25T01:47:20.926Z,100981.30
2019-03-25T01:49:54.681Z,100982.37
2019-03-25T01:52:28.457Z,100973.36
2019-03-25T01:55:13.081Z,100967.97
2019-03-25T01:57:37.640Z,100959.01
2019-03-25T02:00:12.847Z,100947.48
2019-03-25T02:02:48.519Z,100948.11
2019-03-25T02:05:22.371Z,100938.67
2019-03-25T02:07:56.203Z,100934.35
2019-03-25T02:10:29.925Z,100933.11
2019-03-25T02:13:03.763Z,100933.59
2019-03-25T02:15:38.440Z,100929.14
2019-03-25T02:18:13.297Z,100929.28
2019-03-25T02:20:47.165Z,100927.53
2019-03-25T02:23:22.052Z,100921.45
2019-03-25T02:25:55.966Z,100916.08
2019-03-25T02:28:30.131Z,100919.00
2019-03-25T02:31:05.959Z,100916.81
2019-03-25T02:33:39.899Z,100909.83
2019-03-25T02:36:13.872Z,100906.69
2019-03-25T02:38:47.767Z,100904.63
2019-03-25T02:41:22.646Z,100898.05
2019-03-25T02:43:56.315Z,100893.58
2019-03-25T02:46:30.031Z,100888.02
2019-03-25T02:49:04.028Z,100886.53
2019-03-25T02:51:37.823Z,100876.12
2019-03-25T02:54:11.988Z,100880.91
2019-03-25T02:56:45.815Z,100872.15
2019-03-25T02:59:20.527Z,100867.61
2019-03-25T03:01:54.253Z,100866.98
2019-03-25T03:04:30.851Z,100868.67
2019-03-25T03:07:04.624Z,100859.94
2019-03-25T03:09:40.569Z,100863.65
2019-03-25T03:12:15.450Z,100853.63
2019-03-25T03:14:53.520Z,100852.19
2019-03-25T03:17:27.509Z,100846.58
2019-03-25T03:20:02.358Z,100838.61
2019-03-25T03:22:36.530Z,100836.67
2019-03-25T03:25:13.882Z,100832.48
2019-03-25T03:27:47.901Z,100828.65
2019-03-25T03:30:26.335Z,100819.31
2019-03-25T03:33:00.226Z,100812.20
2019-03-25T03:35:34.320Z,100812.52
2019-03-25T03:38:08.293Z,100814.23
2019-03-25T03:40:42.031Z,100815.41
2019-03-25T03:43:15.983Z,100811.81
2019-03-25T03:45:49.848Z,100810.04
2019-03-25T03:48:24.979Z,100808.27
2019-03-25T03:51:00.390Z,100799.95
2019-03-25T03:53:35.167Z,100794.85
2019-03-25T03:56:13.563Z,100796.98
2019-03-25T03:58:46.143Z,100790.89
2019-03-25T04:01:20.036Z,100781.15
2019-03-25T04:03:53.881Z,100778.38
2019-03-25T04:06:27.908Z,100784.78
2019-03-25T04:09:01.834Z,100775.78
2019-03-25T04:11:36.708Z,100773.59
2019-03-25T04:14:10.399Z,100767.58
2019-03-25T04:16:45.068Z,100771.34
2019-03-25T04:19:21.207Z,100769.13
2019-03-25T04:21:57.106Z,100780.34
2019-03-25T04:24:33.068Z,100780.63
2019-03-25T04:27:06.752Z,100780.17
2019-03-25T04:29:40.429Z,100770.44
2019-03-25T04:32:14.560Z,100772.84
2019-03-25T04:34:48.444Z,100762.44
2019-03-25T04:37:22.179Z,100759.50
2019-03-25T04:39:55.862Z,100763.74
2019-03-25T04:42:29.644Z,100763.67
2019-03-25T04:45:03.438Z,100756.42
2019-03-25T04:47:37.191Z,100756.14
2019-03-25T04:50:10.999Z,100750.70
2019-03-25T04:52:44.738Z,100745.19
2019-03-25T04:55:18.914Z,100738.22
2019-03-25T04:57:52.717Z,100738.87
2019-03-25T05:00:37.721Z,100730.48
2019-03-25T05:03:13.181Z,100739.88
2019-03-25T05:05:46.896Z,100736.67
2019-03-25T05:08:20.537Z,100734.39
2019-03-25T05:10:54.260Z,100726.94
2019-03-25T05:13:27.797Z,100729.84
2019-03-25T05:16:01.335Z,100723.15
2019-03-25T05:18:36.138Z,100713.97
2019-03-25T05:21:09.973Z,100713.97
2019-03-25T05:23:44.868Z,100712.88
2019-03-25T05:26:23.177Z,100708.77
2019-03-25T05:28:57.626Z,100706.64
2019-03-25T05:31:32.735Z,100702.77
2019-03-25T05:34:20.511Z,100694.72
2019-03-25T05:36:47.810Z,100691.53
2019-03-25T05:39:23.214Z,100685.91
2019-03-25T05:42:13.306Z,100681.24
2019-03-25T05:44:53.156Z,100683.42
2019-03-25T05:47:26.848Z,100676.94
2019-03-25T05:50:02.639Z,100674.23
2019-03-25T05:52:36.412Z,100664.77
2019-03-25T05:55:10.273Z,100669.75
2019-03-25T05:57:44.020Z,100662.38
2019-03-25T06:00:19.757Z,100671.13
2019-03-25T06:02:59.867Z,100662.62
2019-03-25T06:05:35.114Z,100662.04
2019-03-25T06:08:08.855Z,100658.80
2019-03-25T06:10:42.654Z,100651.53
2019-03-25T06:13:17.113Z,100648.56
2019-03-25T06:15:50.732Z,100643.77
2019-03-25T06:18:24.551Z,100639.05
2019-03-25T06:20:58.586Z,100641.05
2019-03-25T06:23:32.534Z,100637.67
2019-03-25T06:26:06.159Z,100629.66
2019-03-25T06:28:41.281Z,100631.59
2019-03-25T06:31:17.585Z,100634.86
2019-03-25T06:33:51.379Z,100650.72
2019-03-25T06:36:25.076Z,100639.20
2019-03-25T06:38:59.433Z,100626.80
2019-03-25T06:41:34.038Z,100623.20
2019-03-25T06:44:08.041Z,100618.14
2019-03-25T06:46:41.742Z,100613.44
2019-03-25T06:49:15.380Z,100620.64
2019-03-25T06:51:49.188Z,100621.68
2019-03-25T06:54:25.545Z,100616.72
2019-03-25T06:56:59.279Z,100612.27
2019-03-25T06:59:35.646Z,100606.92
2019-03-25T07:02:11.114Z,100611.59
2019-03-25T07:04:45.015Z,100601.70
2019-03-25T07:07:18.726Z,100606.65
2019-03-25T07:09:53.781Z,100600.72
2019-03-25T07:12:27.541Z,100604.41
2019-03-25T07:15:01.281Z,100595.91
2019-03-25T07:17:34.993Z,100601.50
2019-03-25T07:20:12.077Z,100614.10
2019-03-25T07:22:45.944Z,100613.34
2019-03-25T07:25:21.301Z,100609.47
2019-03-25T07:27:55.083Z,100610.83
2019-03-25T07:30:29.043Z,100596.83
2019-03-25T07:33:02.765Z,100607.88
2019-03-25T07:35:36.727Z,100607.13
2019-03-25T07:38:10.428Z,100604.77
2019-03-25T07:40:44.382Z,100600.92
2019-03-25T07:43:19.102Z,100597.66
2019-03-25T07:45:52.736Z,100595.71
2019-03-25T07:48:26.377Z,100594.64
2019-03-25T07:51:00.682Z,100589.52
2019-03-25T07:53:35.076Z,100589.78
2019-03-25T07:56:08.654Z,100587.38
2019-03-25T07:58:42.235Z,100581.05
2019-03-25T08:01:15.922Z,100576.80
2019-03-25T08:03:50.665Z,100577.56
2019-03-25T08:06:24.319Z,100577.39
2019-03-25T08:09:03.667Z,100574.98
2019-03-25T08:11:33.581Z,100567.24
2019-03-25T08:14:07.377Z,100564.08
2019-03-25T08:16:41.485Z,100565.72
2019-03-25T08:19:15.139Z,100563.50
2019-03-25T08:21:48.976Z,100560.36
2019-03-25T08:24:22.618Z,100558.02
2019-03-25T08:26:56.248Z,100554.52
2019-03-25T08:29:30.344Z,100551.38
2019-03-25T08:32:05.045Z,100551.47
2019-03-25T08:34:39.184Z,100547.63
2019-03-25T08:37:12.916Z,100553.54
2019-03-25T08:39:48.869Z,100549.73
2019-03-25T08:42:22.594Z,100545.65
2019-03-25T08:44:56.349Z,100552.84
2019-03-25T08:47:30.043Z,100549.86
2019-03-25T08:50:04.362Z,100554.38
2019-03-25T08:52:39.734Z,100554.42
2019-03-25T08:55:13.972Z,100555.02
2019-03-25T08:57:49.107Z,100555.25
2019-03-25T09:00:23.170Z,100547.37
2019-03-25T09:02:58.220Z,100549.50
2019-03-25T09:05:33.285Z,100544.81
2019-03-25T09:08:07.047Z,100546.30
2019-03-25T09:10:40.829Z,100542.57
2019-03-25T09:13:15.511Z,100533.05
2019-03-25T09:15:49.876Z,100531.09
2019-03-25T09:18:24.953Z,100532.47
2019-03-25T09:20:59.666Z,100531.71
2019-03-25T09:23:34.793Z,100528.30
2019-03-25T09:26:08.652Z,100523.94
2019-03-25T09:28:42.343Z,100522.67
2019-03-25T09:31:20.500Z,100508.41
2019-03-25T09:33:55.826Z,100514.16
2019-03-25T09:36:29.576Z,100511.90
2019-03-25T09:39:04.997Z,100513.26
2019-03-25T09:41:38.935Z,100512.76
2019-03-25T09:44:12.690Z,100525.80
2019-03-25T09:46:46.565Z,100525.27
2019-03-25T09:49:21.778Z,100527.35
2019-03-25T09:51:55.537Z,100514.98
2019-03-25T09:54:29.661Z,100518.97
2019-03-25T09:57:06.431Z,100518.94
2019-03-25T09:59:40.278Z,100518.50
2019-03-25T10:02:17.924Z,100514.14
2019-03-25T10:04:53.172Z,100515.45
2019-03-25T10:07:28.660Z,100512.41
2019-03-25T10:10:02.324Z,100507.54
2019-03-25T10:12:36.079Z,100515.03
2019-03-25T10:15:10.488Z,100508.88
2019-03-25T10:17:44.562Z,100502.20
2019-03-25T10:20:20.105Z,100496.30
2019-03-25T10:22:53.976Z,100502.53
2019-03-25T10:25:27.790Z,100502.08
2019-03-25T10:28:01.631Z,100497.20
2019-03-25T10:30:35.276Z,100502.21
2019-03-25T10:33:10.693Z,100494.82
2019-03-25T10:35:47.536Z,100499.22
2019-03-25T10:38:21.344Z,100498.69
2019-03-25T10:40:55.354Z,100492.05
2019-03-25T10:43:29.139Z,100506.03
2019-03-25T10:46:03.081Z,100495.95
2019-03-25T10:48:36.945Z,100506.41
2019-03-25T10:51:10.651Z,100505.39
2019-03-25T10:53:44.455Z,100505.20
2019-03-25T10:56:18.156Z,100512.13
2019-03-25T10:58:58.295Z,100511.45
2019-03-25T11:01:31.196Z,100511.74
2019-03-25T11:04:09.153Z,100514.16
2019-03-25T11:06:42.833Z,100521.95
2019-03-25T11:09:16.622Z,100515.36
2019-03-25T11:11:50.418Z,100516.17
2019-03-25T11:14:24.166Z,100516.03
2019-03-25T11:16:57.957Z,100518.63
2019-03-25T11:19:32.088Z,100520.78
2019-03-25T11:22:05.912Z,100519.73
2019-03-25T11:24:39.627Z,100529.12
2019-03-25T11:27:13.357Z,100529.70
2019-03-25T11:29:47.121Z,100536.84
2019-03-25T11:32:20.744Z,100539.23
2019-03-25T11:34:54.602Z,100541.23
2019-03-25T11:37:28.430Z,100551.38
2019-03-25T11:40:02.400Z,100545.44
2019-03-25T11:42:36.109Z,100541.94
2019-03-25T11:45:11.899Z,100546.04
2019-03-25T11:47:46.047Z,100553.70
2019-03-25T11:50:19.810Z,100562.14
2019-03-25T11:52:55.614Z,100564.48
2019-03-25T11:55:32.531Z,100570.49
2019-03-25T11:58:06.774Z,100576.17
2019-03-25T12:00:40.384Z,100583.38
2019-03-25T12:03:14.100Z,100577.51
2019-03-25T12:05:47.939Z,100584.22
2019-03-25T12:08:23.323Z,100575.45
2019-03-25T12:10:57.416Z,100590.45
2019-03-25T12:13:32.250Z,100588.69
2019-03-25T12:16:06.341Z,100591.55
2019-03-25T12:18:40.159Z,100590.27
2019-03-25T12:21:14.134Z,100595.36
2019-03-25T12:23:49.436Z,100589.91
2019-03-25T12:26:23.198Z,100591.07
2019-03-25T12:28:57.027Z,100586.36
2019-03-25T12:31:30.938Z,100595.45
2019-03-25T12:34:04.939Z,100594.98
2019-03-25T12:36:41.083Z,100595.55
2019-03-25T12:39:15.409Z,100592.16
2019-03-25T12:41:49.190Z,100598.06
2019-03-25T12:44:22.860Z,100594.98
2019-03-25T12:46:56.632Z,100594.19
2019-03-25T12:49:30.656Z,100594.02
2019-03-25T12:52:07.346Z,100599.98
2019-03-25T12:54:42.097Z,100606.41
2019-03-25T12:57:17.774Z,100603.77
2019-03-25T12:59:51.544Z,100607.81
2019-03-25T13:02:25.208Z,100611.95
2019-03-25T13:04:58.921Z,100612.27
2019-03-25T13:07:33.371Z,100609.94
2019-03-25T13:10:07.973Z,100612.46
2019-03-25T13:12:41.687Z,100611.91
2019-03-25T13:15:15.610Z,100617.42
2019-03-25T13:17:49.594Z,100624.61
2019-03-25T13:23:26.043Z,100625.27
2019-03-25T13:26:01.344Z,100630.48
2019-03-25T13:28:36.746Z,100629.45
2019-03-25T13:31:13.287Z,100630.89
2019-03-25T13:33:47.380Z,100627.86
2019-03-25T13:36:21.180Z,100638.82
2019-03-25T13:38:58.019Z,100635.95
2019-03-25T13:41:34.001Z,100641.70
2019-03-25T13:44:11.203Z,100647.54
2019-03-25T13:46:46.647Z,100642.52
2019-03-25T13:49:21.758Z,100640.09
2019-03-25T13:51:59.523Z,100641.91
2019-03-25T13:54:33.441Z,100649.38
2019-03-25T13:57:07.551Z,100647.89
2019-03-25T13:59:43.769Z,100651.71
2019-03-25T14:02:19.738Z,100650.08
2019-03-25T14:05:10.327Z,100650.59
2019-03-25T14:07:43.908Z,100651.99
2019-03-25T14:10:17.662Z,100656.00
2019-03-25T14:12:57.357Z,100653.34
2019-03-25T14:15:33.247Z,100656.00
2019-03-25T14:18:08.276Z,100656.61
2019-03-25T14:20:42.356Z,100659.73
2019-03-25T14:23:16.646Z,100658.94
2019-03-25T14:25:50.711Z,100664.67
2019-03-25T14:29:04.856Z,100665.59
2019-03-25T14:32:18.698Z,100673.11
2019-03-25T14:34:57.986Z,100670.07
2019-03-25T14:37:45.065Z,100677.13
2019-03-25T14:40:21.663Z,100676.40
2019-03-25T14:43:17.165Z,100670.92
2019-03-25T14:46:09.517Z,100672.40
2019-03-25T14:48:56.530Z,100667.84
2019-03-25T14:51:31.704Z,100668.89
2019-03-25T14:54:06.646Z,100663.47
2019-03-25T14:56:40.806Z,100668.32
2019-03-25T14:59:15.798Z,100679.75
2019-03-25T15:01:52.274Z,100686.05
2019-03-25T15:04:32.973Z,100694.02
2019-03-25T15:07:11.321Z,100705.77
2019-03-25T15:09:50.506Z,100713.08
2019-03-25T15:12:27.297Z,100716.27
2019-03-25T15:15:05.828Z,100715.63
2019-03-25T15:17:40.259Z,100712.03
2019-03-25T15:20:20.631Z,100718.84
2019-03-25T15:22:54.533Z,100717.59
2019-03-25T15:25:29.867Z,100713.56
2019-03-25T15:28:03.651Z,100721.44
2019-03-25T15:30:39.512Z,100717.18
2019-03-25T15:33:14.824Z,100724.39
2019-03-25T15:35:50.969Z,100726.63
2019-03-25T15:38:25.675Z,100729.31
2019-03-25T15:40:59.800Z,100734.16
2019-03-25T15:43:33.932Z,100735.59
2019-03-25T15:46:08.089Z,100739.19
2019-03-25T15:48:41.916Z,100744.42
2019-03-25T15:51:28.064Z,100743.11
2019-03-25T15:54:04.022Z,100749.34
2019-03-25T15:56:45.544Z,100748.60
2019-03-25T15:59:20.731Z,100749.44
2019-03-25T16:02:03.449Z,100747.37
2019-03-25T16:04:40.665Z,100756.19
2019-03-25T16:07:24.861Z,100764.50
2019-03-25T16:10:11.006Z,100768.41
2019-03-25T16:12:46.510Z,100776.13
2019-03-25T16:15:45.639Z,100777.43
2019-03-25T16:18:39.528Z,100783.12
2019-03-25T16:21:13.809Z,100783.16
2019-03-25T16:23:47.948Z,100786.31
2019-03-25T16:26:21.718Z,100789.86
2019-03-25T16:28:55.390Z,100790.28
2019-03-25T16:31:29.012Z,100787.62
2019-03-25T16:34:02.747Z,100786.43
2019-03-25T16:36:36.927Z,100788.72
2019-03-25T16:39:11.611Z,100790.86
2019-03-25T16:41:45.302Z,100796.92
2019-03-25T16:44:19.549Z,100792.89
2019-03-25T16:46:53.218Z,100800.72
2019-03-25T16:49:27.955Z,100799.41
2019-03-25T16:52:01.679Z,100811.11
2019-03-25T16:54:36.332Z,100815.44
2019-03-25T16:57:11.222Z,100824.11
2019-03-25T16:59:44.868Z,100825.34
2019-03-25T17:02:19.045Z,100823.05
2019-03-25T17:04:52.637Z,100829.03
2019-03-25T17:07:26.273Z,100843.48
2019-03-25T17:10:01.410Z,100843.02
2019-03-25T17:12:36.852Z,100845.28
2019-03-25T17:15:10.859Z,100855.35
2019-03-25T17:17:45.514Z,100852.80
2019-03-25T17:20:24.655Z,100857.08
2019-03-25T17:22:58.417Z,100861.48
2019-03-25T17:25:32.146Z,100867.59
2019-03-25T17:28:10.049Z,100875.52
2019-03-25T17:30:43.678Z,100871.24
2019-03-25T17:33:17.705Z,100884.00
2019-03-25T17:35:51.479Z,100889.34
2019-03-25T17:38:27.530Z,100890.75
2019-03-25T17:41:03.833Z,100901.69
2019-03-25T17:43:37.838Z,100904.82
2019-03-25T17:46:13.792Z,100907.44
2019-03-25T17:48:47.509Z,100908.34
2019-03-25T17:51:21.116Z,100919.23
2019-03-25T17:53:54.841Z,100926.72
2019-03-25T17:56:28.522Z,100936.75
2019-03-25T17:59:02.272Z,100940.19
2019-03-25T18:01:37.583Z,100947.14
2019-03-25T18:04:11.365Z,100944.16
2019-03-25T18:06:45.293Z,100942.33
2019-03-25T18:09:19.115Z,100951.00
2019-03-25T18:11:54.713Z,100953.59
2019-03-25T18:14:31.178Z,100958.40
2019-03-25T18:17:08.360Z,100962.63
2019-03-25T18:19:42.266Z,100969.20
2019-03-25T18:22:24.047Z,100974.48
2019-03-25T18:25:11.327Z,100982.33
2019-03-25T18:27:51.899Z,100991.03
2019-03-25T18:30:36.305Z,100995.80
2019-03-25T18:33:19.471Z,101000.90
2019-03-25T18:35:55.283Z,101007.82
2019-03-25T18:38:30.483Z,101015.67
2019-03-25T18:41:04.635Z,101017.81
2019-03-25T18:43:44.691Z,101026.23
2019-03-25T18:46:18.764Z,101025.00
2019-03-25T18:48:53.944Z,101018.94
2019-03-25T18:51:28.298Z,101032.53
2019-03-25T18:54:06.406Z,101031.16
2019-03-25T18:56:40.478Z,101032.84
2019-03-25T18:59:14.501Z,101035.08
2019-03-25T19:01:54.440Z,101037.51
2019-03-25T19:04:27.222Z,101046.53
2019-03-25T19:07:01.766Z,101048.53
2019-03-25T19:09:36.315Z,101050.95
2019-03-25T19:12:10.515Z,101059.53
2019-03-25T19:14:44.428Z,101063.33
2019-03-25T19:17:18.681Z,101062.30
2019-03-25T19:19:52.470Z,101071.44
2019-03-25T19:22:26.153Z,101081.05
2019-03-25T19:24:59.845Z,101085.32
2019-03-25T19:27:33.664Z,101087.43
2019-03-25T19:30:08.599Z,101079.95
2019-03-25T19:32:42.384Z,101086.42
2019-03-25T19:35:17.025Z,101087.94
2019-03-25T19:37:50.835Z,101097.75
2019-03-25T19:40:24.658Z,101107.63
2019-03-25T19:42:58.973Z,101117.02
2019-03-25T19:45:32.728Z,101122.47
2019-03-25T19:48:06.950Z,101130.27
2019-03-25T19:50:40.948Z,101133.08
2019-03-25T19:53:19.324Z,101132.54
2019-03-25T19:55:50.821Z,101137.59
2019-03-25T19:58:24.929Z,101136.17
2019-03-25T20:01:01.435Z,101146.98
2019-03-25T20:03:35.445Z,101150.48
2019-03-25T20:06:11.306Z,101154.81
2019-03-25T20:08:51.520Z,101162.09
2019-03-25T20:11:26.126Z,101171.53
2019-03-25T20:14:00.104Z,101180.05
2019-03-25T20:16:34.091Z,101184.79
2019-03-25T20:19:08.140Z,101193.41
2019-03-25T20:21:50.913Z,101198.90
2019-03-25T20:24:24.958Z,101196.27
2019-03-25T20:26:58.689Z,101203.36
2019-03-25T20:29:32.924Z,101209.46
2019-03-25T20:32:06.857Z,101213.44
2019-03-25T20:34:40.758Z,101216.08
2019-03-25T20:37:17.460Z,101217.45
2019-03-25T20:39:51.510Z,101221.90
2019-03-25T20:42:27.856Z,101218.88
2019-03-25T20:45:01.765Z,101234.75
2019-03-25T20:47:38.912Z,101231.32
2019-03-25T20:50:13.653Z,101225.56
2019-03-25T20:52:47.539Z,101232.15
2019-03-25T20:55:21.737Z,101240.38
2019-03-25T20:57:55.605Z,101243.75
2019-03-25T21:00:56.980Z,101244.06
2019-03-25T21:03:32.555Z,101250.93
2019-03-25T21:06:06.936Z,101249.94
2019-03-25T21:08:41.392Z,101253.78
2019-03-25T21:11:15.628Z,101260.64
2019-03-25T21:13:49.529Z,101257.56
2019-03-25T21:16:23.542Z,101262.26
2019-03-25T21:18:57.415Z,101267.81
2019-03-25T21:21:32.347Z,101266.03
2019-03-25T21:24:06.041Z,101265.14
2019-03-25T21:26:40.817Z,101267.23
2019-03-25T21:29:14.502Z,101271.02
2019-03-25T21:31:48.200Z,101276.60
2019-03-25T21:34:22.070Z,101278.66
2019-03-25T21:36:55.878Z,101278.48
2019-03-25T21:39:29.805Z,101280.95
2019-03-25T21:42:03.932Z,101280.20
2019-03-25T21:44:37.798Z,101286.27
2019-03-25T21:47:11.582Z,101287.05
2019-03-25T21:49:45.418Z,101286.98
2019-03-25T21:52:19.287Z,101293.42
2019-03-25T21:54:52.939Z,101284.20
2019-03-25T21:57:27.759Z,101288.38
2019-03-25T22:00:02.230Z,101296.08
2019-03-25T22:02:36.981Z,101300.81
2019-03-25T22:05:11.480Z,101298.44
2019-03-25T22:07:46.472Z,101299.97
2019-03-25T22:10:20.496Z,101299.34
2019-03-25T22:12:57.027Z,101310.55
2019-03-25T22:15:30.662Z,101314.12
2019-03-25T22:18:05.125Z,101311.73
2019-03-25T22:20:42.679Z,101316.39
2019-03-25T22:23:17.881Z,101327.55
2019-03-25T22:25:53.371Z,101328.18
2019-03-25T22:28:27.353Z,101331.97
2019-03-25T22:31:06.215Z,101333.53
2019-03-25T22:33:41.631Z,101332.52
2019-03-25T22:36:15.459Z,101335.53
2019-03-25T22:38:49.119Z,101335.38
2019-03-25T22:41:22.819Z,101340.95
2019-03-25T22:43:56.473Z,101339.02
2019-03-25T22:46:30.072Z,101357.12
2019-03-25T22:49:03.976Z,101358.23
2019-03-25T22:51:37.605Z,101358.48
2019-03-25T22:54:11.415Z,101363.08
2019-03-25T22:56:45.184Z,101366.34
2019-03-25T22:59:18.834Z,101370.32
2019-03-25T23:01:52.543Z,101364.77
2019-03-25T23:04:26.367Z,101375.17
2019-03-25T23:07:00.062Z,101380.33
2019-03-25T23:09:33.928Z,101393.46
2019-03-25T23:12:09.172Z,101401.59
2019-03-25T23:14:42.989Z,101406.84
2019-03-25T23:17:16.726Z,101414.11
2019-03-25T23:19:50.340Z,101417.11
2019-03-25T23:22:23.976Z,101423.81
2019-03-25T23:24:57.844Z,101427.88
2019-03-25T23:27:31.435Z,101423.84
2019-03-25T23:30:05.567Z,101430.27
2019-03-25T23:32:39.291Z,101432.73
2019-03-25T23:35:12.963Z,101435.49
2019-03-25T23:37:46.598Z,101432.84
2019-03-25T23:40:20.331Z,101444.30
2019-03-25T23:42:54.064Z,101445.47
2019-03-25T23:45:28.841Z,101449.90
2019-03-25T23:48:02.638Z,101449.17
2019-03-25T23:50:36.489Z,101451.64
2019-03-25T23:53:10.206Z,101448.47
2019-03-25T23:55:43.899Z,101447.17
2019-03-25T23:58:17.509Z,101453.80
